sensor_id;sensor_type;location;lat;lon;timestamp;P1;durP1;ratioP1;P2;durP2;ratioP2
2213;SDS011;1113;42.018;23.986;2023-04-19T00:01:40;4.50;;;3.40;;
2213;SDS011;1113;42.018;23.986;2023-04-19T00:04:06;4.50;;;2.60;;
2213;SDS011;1113;42.018;23.986;2023-04-19T00:06:33;4.03;;;2.50;;
2213;SDS011;1113;42.018;23.986;2023-04-19T00:08:59;8.90;;;6.40;;
2213;SDS011;1113;42.018;23.986;2023-04-19T00:11:26;9.77;;;5.00;;
2213;SDS011;1113;42.018;23.986;2023-04-19T00:13:53;9.73;;;6.03;;
2213;SDS011;1113;42.018;23.986;2023-04-19T00:16:19;9.73;;;6.40;;
2213;SDS011;1113;42.018;23.986;2023-04-19T00:18:47;11.40;;;7.00;;
2213;SDS011;1113;42.018;23.986;2023-04-19T00:21:14;8.27;;;4.77;;
2213;SDS011;1113;42.018;23.986;2023-04-19T00:23:40;10.90;;;5.73;;
2213;SDS011;1113;42.018;23.986;2023-04-19T00:26:07;11.37;;;6.57;;
2213;SDS011;1113;42.018;23.986;2023-04-19T00:28:35;9.50;;;5.47;;
2213;SDS011;1113;42.018;23.986;2023-04-19T00:31:02;17.50;;;9.60;;
2213;SDS011;1113;42.018;23.986;2023-04-19T00:33:28;12.20;;;6.43;;
2213;SDS011;1113;42.018;23.986;2023-04-19T00:35:56;9.77;;;5.93;;
2213;SDS011;1113;42.018;23.986;2023-04-19T00:38:22;11.60;;;7.20;;
2213;SDS011;1113;42.018;23.986;2023-04-19T00:40:49;11.40;;;8.73;;
2213;SDS011;1113;42.018;23.986;2023-04-19T00:43:16;10.33;;;6.20;;
2213;SDS011;1113;42.018;23.986;2023-04-19T00:45:43;8.30;;;4.93;;
2213;SDS011;1113;42.018;23.986;2023-04-19T00:48:09;8.50;;;5.37;;
2213;SDS011;1113;42.018;23.986;2023-04-19T00:50:36;9.17;;;5.63;;
2213;SDS011;1113;42.018;23.986;2023-04-19T00:53:04;12.60;;;7.30;;
2213;SDS011;1113;42.018;23.986;2023-04-19T00:55:31;9.77;;;5.33;;
2213;SDS011;1113;42.018;23.986;2023-04-19T00:57:58;13.00;;;7.13;;
2213;SDS011;1113;42.018;23.986;2023-04-19T01:00:25;7.40;;;4.00;;
2213;SDS011;1113;42.018;23.986;2023-04-19T01:02:51;4.97;;;2.87;;
2213;SDS011;1113;42.018;23.986;2023-04-19T01:05:19;8.80;;;4.60;;
2213;SDS011;1113;42.018;23.986;2023-04-19T01:07:46;10.00;;;5.80;;
2213;SDS011;1113;42.018;23.986;2023-04-19T01:10:14;8.40;;;4.97;;
2213;SDS011;1113;42.018;23.986;2023-04-19T01:12:40;6.50;;;3.70;;
2213;SDS011;1113;42.018;23.986;2023-04-19T01:15:07;6.50;;;4.10;;
2213;SDS011;1113;42.018;23.986;2023-04-19T01:17:34;7.50;;;5.00;;
2213;SDS011;1113;42.018;23.986;2023-04-19T01:20:01;3.90;;;2.20;;
2213;SDS011;1113;42.018;23.986;2023-04-19T01:22:30;5.33;;;3.43;;
2213;SDS011;1113;42.018;23.986;2023-04-19T01:24:56;5.50;;;3.80;;
2213;SDS011;1113;42.018;23.986;2023-04-19T01:27:23;12.67;;;8.63;;
2213;SDS011;1113;42.018;23.986;2023-04-19T01:29:50;11.00;;;7.80;;
2213;SDS011;1113;42.018;23.986;2023-04-19T01:32:16;6.93;;;3.67;;
2213;SDS011;1113;42.018;23.986;2023-04-19T01:34:43;2.87;;;1.63;;
2213;SDS011;1113;42.018;23.986;2023-04-19T01:37:09;3.33;;;2.00;;
2213;SDS011;1113;42.018;23.986;2023-04-19T01:39:37;3.97;;;1.83;;
2213;SDS011;1113;42.018;23.986;2023-04-19T01:42:04;2.80;;;1.70;;
2213;SDS011;1113;42.018;23.986;2023-04-19T01:44:30;2.83;;;1.47;;
2213;SDS011;1113;42.018;23.986;2023-04-19T01:46:57;2.37;;;1.60;;
2213;SDS011;1113;42.018;23.986;2023-04-19T01:49:23;4.27;;;2.70;;
2213;SDS011;1113;42.018;23.986;2023-04-19T01:51:50;3.70;;;2.40;;
2213;SDS011;1113;42.018;23.986;2023-04-19T01:54:16;3.90;;;1.80;;
2213;SDS011;1113;42.018;23.986;2023-04-19T01:56:44;2.10;;;1.10;;
2213;SDS011;1113;42.018;23.986;2023-04-19T01:59:11;4.23;;;1.20;;
2213;SDS011;1113;42.018;23.986;2023-04-19T02:01:37;2.80;;;1.80;;
2213;SDS011;1113;42.018;23.986;2023-04-19T02:04:04;2.33;;;1.17;;
2213;SDS011;1113;42.018;23.986;2023-04-19T02:06:30;4.23;;;1.33;;
2213;SDS011;1113;42.018;23.986;2023-04-19T02:08:57;2.83;;;1.80;;
2213;SDS011;1113;42.018;23.986;2023-04-19T02:11:23;2.77;;;1.80;;
2213;SDS011;1113;42.018;23.986;2023-04-19T02:13:51;3.17;;;1.87;;
2213;SDS011;1113;42.018;23.986;2023-04-19T02:16:18;2.80;;;1.77;;
2213;SDS011;1113;42.018;23.986;2023-04-19T02:18:44;3.87;;;2.67;;
2213;SDS011;1113;42.018;23.986;2023-04-19T02:21:12;6.93;;;3.30;;
2213;SDS011;1113;42.018;23.986;2023-04-19T02:23:38;5.17;;;3.20;;
2213;SDS011;1113;42.018;23.986;2023-04-19T02:26:05;5.17;;;3.10;;
2213;SDS011;1113;42.018;23.986;2023-04-19T02:28:31;4.50;;;2.87;;
2213;SDS011;1113;42.018;23.986;2023-04-19T02:31:02;5.80;;;3.30;;
2213;SDS011;1113;42.018;23.986;2023-04-19T02:33:29;8.80;;;4.00;;
2213;SDS011;1113;42.018;23.986;2023-04-19T02:35:55;7.83;;;4.77;;
2213;SDS011;1113;42.018;23.986;2023-04-19T02:38:22;15.07;;;8.67;;
2213;SDS011;1113;42.018;23.986;2023-04-19T02:40:48;17.73;;;8.90;;
2213;SDS011;1113;42.018;23.986;2023-04-19T02:43:15;10.37;;;5.90;;
2213;SDS011;1113;42.018;23.986;2023-04-19T02:45:41;8.30;;;4.77;;
2213;SDS011;1113;42.018;23.986;2023-04-19T02:48:10;8.03;;;4.80;;
2213;SDS011;1113;42.018;23.986;2023-04-19T02:50:36;7.40;;;4.27;;
2213;SDS011;1113;42.018;23.986;2023-04-19T02:53:03;6.13;;;3.30;;
2213;SDS011;1113;42.018;23.986;2023-04-19T02:55:31;5.33;;;3.40;;
2213;SDS011;1113;42.018;23.986;2023-04-19T02:57:57;6.77;;;3.57;;
2213;SDS011;1113;42.018;23.986;2023-04-19T03:00:24;7.60;;;4.67;;
2213;SDS011;1113;42.018;23.986;2023-04-19T03:02:50;8.43;;;5.40;;
2213;SDS011;1113;42.018;23.986;2023-04-19T03:05:18;7.43;;;4.40;;
2213;SDS011;1113;42.018;23.986;2023-04-19T03:07:45;8.67;;;5.30;;
2213;SDS011;1113;42.018;23.986;2023-04-19T03:10:11;9.97;;;5.93;;
2213;SDS011;1113;42.018;23.986;2023-04-19T03:12:38;6.13;;;3.70;;
2213;SDS011;1113;42.018;23.986;2023-04-19T03:15:05;9.57;;;3.53;;
2213;SDS011;1113;42.018;23.986;2023-04-19T03:17:32;5.27;;;2.93;;
2213;SDS011;1113;42.018;23.986;2023-04-19T03:19:58;14.20;;;10.70;;
2213;SDS011;1113;42.018;23.986;2023-04-19T03:22:26;4.00;;;2.70;;
2213;SDS011;1113;42.018;23.986;2023-04-19T03:24:52;4.27;;;3.07;;
2213;SDS011;1113;42.018;23.986;2023-04-19T03:27:19;8.10;;;5.90;;
2213;SDS011;1113;42.018;23.986;2023-04-19T03:29:46;9.87;;;6.33;;
2213;SDS011;1113;42.018;23.986;2023-04-19T03:32:12;9.50;;;6.67;;
2213;SDS011;1113;42.018;23.986;2023-04-19T03:34:39;8.73;;;7.80;;
2213;SDS011;1113;42.018;23.986;2023-04-19T03:37:06;13.20;;;11.30;;
2213;SDS011;1113;42.018;23.986;2023-04-19T03:39:33;14.57;;;10.73;;
2213;SDS011;1113;42.018;23.986;2023-04-19T03:42:00;6.47;;;5.43;;
2213;SDS011;1113;42.018;23.986;2023-04-19T03:44:30;5.47;;;4.50;;
2213;SDS011;1113;42.018;23.986;2023-04-19T03:46:56;6.30;;;4.57;;
2213;SDS011;1113;42.018;23.986;2023-04-19T03:49:23;4.23;;;3.40;;
2213;SDS011;1113;42.018;23.986;2023-04-19T03:51:50;5.10;;;2.70;;
2213;SDS011;1113;42.018;23.986;2023-04-19T03:54:16;4.33;;;3.40;;
2213;SDS011;1113;42.018;23.986;2023-04-19T03:56:44;4.73;;;3.37;;
2213;SDS011;1113;42.018;23.986;2023-04-19T03:59:10;7.37;;;6.57;;
2213;SDS011;1113;42.018;23.986;2023-04-19T04:01:37;10.87;;;9.00;;
2213;SDS011;1113;42.018;23.986;2023-04-19T04:04:06;12.03;;;9.03;;
2213;SDS011;1113;42.018;23.986;2023-04-19T04:06:32;11.03;;;8.20;;
2213;SDS011;1113;42.018;23.986;2023-04-19T04:08:59;10.40;;;7.50;;
2213;SDS011;1113;42.018;23.986;2023-04-19T04:11:25;6.30;;;5.50;;
2213;SDS011;1113;42.018;23.986;2023-04-19T04:13:54;5.77;;;4.67;;
2213;SDS011;1113;42.018;23.986;2023-04-19T04:16:20;6.97;;;5.37;;
2213;SDS011;1113;42.018;23.986;2023-04-19T04:18:47;5.73;;;5.00;;
2213;SDS011;1113;42.018;23.986;2023-04-19T04:21:14;12.07;;;7.10;;
2213;SDS011;1113;42.018;23.986;2023-04-19T04:23:40;9.10;;;7.70;;
2213;SDS011;1113;42.018;23.986;2023-04-19T04:26:07;15.50;;;12.50;;
2213;SDS011;1113;42.018;23.986;2023-04-19T04:28:35;15.13;;;12.40;;
2213;SDS011;1113;42.018;23.986;2023-04-19T04:31:03;16.57;;;12.60;;
2213;SDS011;1113;42.018;23.986;2023-04-19T04:33:30;14.97;;;12.80;;
2213;SDS011;1113;42.018;23.986;2023-04-19T04:35:59;19.20;;;14.37;;
2213;SDS011;1113;42.018;23.986;2023-04-19T04:38:26;13.23;;;11.60;;
2213;SDS011;1113;42.018;23.986;2023-04-19T04:40:54;15.77;;;11.60;;
2213;SDS011;1113;42.018;23.986;2023-04-19T04:43:21;15.90;;;14.20;;
2213;SDS011;1113;42.018;23.986;2023-04-19T04:45:48;19.37;;;17.27;;
2213;SDS011;1113;42.018;23.986;2023-04-19T04:48:16;27.03;;;22.47;;
2213;SDS011;1113;42.018;23.986;2023-04-19T04:50:42;31.17;;;21.93;;
2213;SDS011;1113;42.018;23.986;2023-04-19T04:53:09;34.83;;;23.70;;
2213;SDS011;1113;42.018;23.986;2023-04-19T04:55:36;28.33;;;22.03;;
2213;SDS011;1113;42.018;23.986;2023-04-19T04:58:03;27.80;;;22.07;;
2213;SDS011;1113;42.018;23.986;2023-04-19T05:00:29;29.90;;;23.67;;
2213;SDS011;1113;42.018;23.986;2023-04-19T05:02:56;31.67;;;25.17;;
2213;SDS011;1113;42.018;23.986;2023-04-19T05:05:24;33.47;;;25.90;;
2213;SDS011;1113;42.018;23.986;2023-04-19T05:07:51;33.20;;;24.80;;
2213;SDS011;1113;42.018;23.986;2023-04-19T05:10:17;28.77;;;23.07;;
2213;SDS011;1113;42.018;23.986;2023-04-19T05:12:44;31.00;;;23.47;;
2213;SDS011;1113;42.018;23.986;2023-04-19T05:15:10;32.70;;;27.33;;
2213;SDS011;1113;42.018;23.986;2023-04-19T05:17:37;33.73;;;26.87;;
2213;SDS011;1113;42.018;23.986;2023-04-19T05:20:04;35.57;;;27.57;;
2213;SDS011;1113;42.018;23.986;2023-04-19T05:22:32;33.47;;;26.40;;
2213;SDS011;1113;42.018;23.986;2023-04-19T05:24:58;30.40;;;25.43;;
2213;SDS011;1113;42.018;23.986;2023-04-19T05:27:26;31.77;;;25.53;;
2213;SDS011;1113;42.018;23.986;2023-04-19T05:29:52;29.43;;;25.90;;
2213;SDS011;1113;42.018;23.986;2023-04-19T05:32:19;33.70;;;26.47;;
2213;SDS011;1113;42.018;23.986;2023-04-19T05:34:45;33.50;;;28.20;;
2213;SDS011;1113;42.018;23.986;2023-04-19T05:37:12;29.07;;;25.87;;
2213;SDS011;1113;42.018;23.986;2023-04-19T05:39:40;31.83;;;27.13;;
2213;SDS011;1113;42.018;23.986;2023-04-19T05:42:06;29.17;;;26.03;;
2213;SDS011;1113;42.018;23.986;2023-04-19T05:44:33;31.17;;;27.17;;
2213;SDS011;1113;42.018;23.986;2023-04-19T05:46:59;26.90;;;22.33;;
2213;SDS011;1113;42.018;23.986;2023-04-19T05:49:26;23.47;;;20.97;;
2213;SDS011;1113;42.018;23.986;2023-04-19T05:51:52;21.00;;;18.60;;
2213;SDS011;1113;42.018;23.986;2023-04-19T05:54:19;23.40;;;19.50;;
2213;SDS011;1113;42.018;23.986;2023-04-19T05:56:47;23.60;;;19.63;;
2213;SDS011;1113;42.018;23.986;2023-04-19T05:59:14;25.40;;;21.40;;
2213;SDS011;1113;42.018;23.986;2023-04-19T06:01:40;25.40;;;21.93;;
2213;SDS011;1113;42.018;23.986;2023-04-19T06:04:07;22.27;;;18.77;;
2213;SDS011;1113;42.018;23.986;2023-04-19T06:06:33;29.50;;;23.13;;
2213;SDS011;1113;42.018;23.986;2023-04-19T06:09:02;29.83;;;22.93;;
2213;SDS011;1113;42.018;23.986;2023-04-19T06:11:29;24.23;;;21.03;;
2213;SDS011;1113;42.018;23.986;2023-04-19T06:13:57;25.13;;;21.10;;
2213;SDS011;1113;42.018;23.986;2023-04-19T06:16:23;29.50;;;24.90;;
2213;SDS011;1113;42.018;23.986;2023-04-19T06:18:50;28.00;;;21.20;;
2213;SDS011;1113;42.018;23.986;2023-04-19T06:21:17;21.20;;;17.30;;
2213;SDS011;1113;42.018;23.986;2023-04-19T06:23:43;26.93;;;16.80;;
2213;SDS011;1113;42.018;23.986;2023-04-19T06:26:10;16.30;;;12.83;;
2213;SDS011;1113;42.018;23.986;2023-04-19T06:28:36;19.10;;;14.37;;
2213;SDS011;1113;42.018;23.986;2023-04-19T06:31:04;17.13;;;13.93;;
2213;SDS011;1113;42.018;23.986;2023-04-19T06:33:31;14.10;;;12.27;;
2213;SDS011;1113;42.018;23.986;2023-04-19T06:35:57;16.57;;;12.70;;
2213;SDS011;1113;42.018;23.986;2023-04-19T06:38:24;11.80;;;9.87;;
2213;SDS011;1113;42.018;23.986;2023-04-19T06:40:50;16.53;;;12.10;;
2213;SDS011;1113;42.018;23.986;2023-04-19T06:43:17;17.20;;;12.10;;
2213;SDS011;1113;42.018;23.986;2023-04-19T06:45:44;15.87;;;11.00;;
2213;SDS011;1113;42.018;23.986;2023-04-19T06:48:12;11.43;;;9.43;;
2213;SDS011;1113;42.018;23.986;2023-04-19T06:50:38;10.37;;;6.37;;
2213;SDS011;1113;42.018;23.986;2023-04-19T06:53:05;11.20;;;6.73;;
2213;SDS011;1113;42.018;23.986;2023-04-19T06:55:31;5.87;;;4.33;;
2213;SDS011;1113;42.018;23.986;2023-04-19T06:57:58;6.70;;;4.50;;
2213;SDS011;1113;42.018;23.986;2023-04-19T07:00:24;8.80;;;5.70;;
2213;SDS011;1113;42.018;23.986;2023-04-19T07:02:51;6.37;;;4.30;;
2213;SDS011;1113;42.018;23.986;2023-04-19T07:05:19;4.00;;;2.97;;
2213;SDS011;1113;42.018;23.986;2023-04-19T07:07:46;5.00;;;3.20;;
2213;SDS011;1113;42.018;23.986;2023-04-19T07:10:12;3.97;;;2.90;;
2213;SDS011;1113;42.018;23.986;2023-04-19T07:12:39;5.93;;;3.40;;
2213;SDS011;1113;42.018;23.986;2023-04-19T07:15:06;5.67;;;3.73;;
2213;SDS011;1113;42.018;23.986;2023-04-19T07:17:33;5.43;;;3.90;;
2213;SDS011;1113;42.018;23.986;2023-04-19T07:20:00;5.30;;;3.80;;
2213;SDS011;1113;42.018;23.986;2023-04-19T07:22:30;4.17;;;3.40;;
2213;SDS011;1113;42.018;23.986;2023-04-19T07:24:57;5.20;;;4.23;;
2213;SDS011;1113;42.018;23.986;2023-04-19T07:27:23;6.97;;;5.60;;
2213;SDS011;1113;42.018;23.986;2023-04-19T07:29:50;5.73;;;4.70;;
2213;SDS011;1113;42.018;23.986;2023-04-19T07:32:17;5.83;;;4.50;;
2213;SDS011;1113;42.018;23.986;2023-04-19T07:34:43;7.63;;;5.67;;
2213;SDS011;1113;42.018;23.986;2023-04-19T07:37:10;8.87;;;5.80;;
2213;SDS011;1113;42.018;23.986;2023-04-19T07:39:38;7.30;;;6.00;;
2213;SDS011;1113;42.018;23.986;2023-04-19T07:42:04;5.57;;;3.83;;
2213;SDS011;1113;42.018;23.986;2023-04-19T07:44:31;4.10;;;2.80;;
2213;SDS011;1113;42.018;23.986;2023-04-19T07:46:57;4.17;;;2.60;;
2213;SDS011;1113;42.018;23.986;2023-04-19T07:49:24;4.90;;;3.00;;
2213;SDS011;1113;42.018;23.986;2023-04-19T07:51:50;6.50;;;4.30;;
2213;SDS011;1113;42.018;23.986;2023-04-19T07:54:17;5.20;;;4.00;;
2213;SDS011;1113;42.018;23.986;2023-04-19T07:56:46;4.90;;;3.20;;
2213;SDS011;1113;42.018;23.986;2023-04-19T07:59:13;4.67;;;3.47;;
2213;SDS011;1113;42.018;23.986;2023-04-19T08:01:40;5.80;;;3.27;;
2213;SDS011;1113;42.018;23.986;2023-04-19T08:04:06;4.03;;;3.17;;
2213;SDS011;1113;42.018;23.986;2023-04-19T08:06:33;3.97;;;3.03;;
2213;SDS011;1113;42.018;23.986;2023-04-19T08:09:02;7.60;;;3.63;;
2213;SDS011;1113;42.018;23.986;2023-04-19T08:11:28;3.90;;;2.60;;
2213;SDS011;1113;42.018;23.986;2023-04-19T08:13:56;5.37;;;3.43;;
2213;SDS011;1113;42.018;23.986;2023-04-19T08:16:23;5.83;;;3.50;;
2213;SDS011;1113;42.018;23.986;2023-04-19T08:18:49;5.87;;;3.50;;
2213;SDS011;1113;42.018;23.986;2023-04-19T08:21:16;5.93;;;3.57;;
2213;SDS011;1113;42.018;23.986;2023-04-19T08:23:43;4.10;;;2.80;;
2213;SDS011;1113;42.018;23.986;2023-04-19T08:26:09;5.37;;;3.00;;
2213;SDS011;1113;42.018;23.986;2023-04-19T08:28:36;4.90;;;3.37;;
2213;SDS011;1113;42.018;23.986;2023-04-19T08:31:05;6.20;;;2.90;;
2213;SDS011;1113;42.018;23.986;2023-04-19T08:33:32;4.83;;;2.40;;
2213;SDS011;1113;42.018;23.986;2023-04-19T08:35:59;5.87;;;3.67;;
2213;SDS011;1113;42.018;23.986;2023-04-19T08:38:25;3.70;;;2.27;;
2213;SDS011;1113;42.018;23.986;2023-04-19T08:40:52;5.20;;;2.70;;
2213;SDS011;1113;42.018;23.986;2023-04-19T08:43:20;5.83;;;3.93;;
2213;SDS011;1113;42.018;23.986;2023-04-19T08:45:46;6.00;;;3.67;;
2213;SDS011;1113;42.018;23.986;2023-04-19T08:48:15;4.03;;;2.70;;
2213;SDS011;1113;42.018;23.986;2023-04-19T08:50:42;3.13;;;2.33;;
2213;SDS011;1113;42.018;23.986;2023-04-19T08:53:10;3.40;;;2.20;;
2213;SDS011;1113;42.018;23.986;2023-04-19T08:55:36;4.20;;;2.63;;
2213;SDS011;1113;42.018;23.986;2023-04-19T08:58:03;5.03;;;3.00;;
2213;SDS011;1113;42.018;23.986;2023-04-19T09:00:30;3.13;;;2.13;;
2213;SDS011;1113;42.018;23.986;2023-04-19T09:02:57;4.20;;;2.80;;
2213;SDS011;1113;42.018;23.986;2023-04-19T09:05:24;2.80;;;2.13;;
2213;SDS011;1113;42.018;23.986;2023-04-19T09:07:51;3.07;;;1.60;;
2213;SDS011;1113;42.018;23.986;2023-04-19T09:10:18;3.33;;;2.10;;
2213;SDS011;1113;42.018;23.986;2023-04-19T09:12:58;8.87;;;5.40;;
2213;SDS011;1113;42.018;23.986;2023-04-19T09:15:33;7.90;;;3.20;;
2213;SDS011;1113;42.018;23.986;2023-04-19T09:18:02;7.60;;;6.03;;
2213;SDS011;1113;42.018;23.986;2023-04-19T09:20:35;11.17;;;8.27;;
2213;SDS011;1113;42.018;23.986;2023-04-19T09:23:02;6.23;;;4.37;;
2213;SDS011;1113;42.018;23.986;2023-04-19T09:25:30;3.90;;;2.80;;
2213;SDS011;1113;42.018;23.986;2023-04-19T09:28:07;6.80;;;4.40;;
2213;SDS011;1113;42.018;23.986;2023-04-19T09:30:33;4.60;;;3.13;;
2213;SDS011;1113;42.018;23.986;2023-04-19T09:33:00;8.40;;;3.20;;
2213;SDS011;1113;42.018;23.986;2023-04-19T09:35:30;5.00;;;3.20;;
2213;SDS011;1113;42.018;23.986;2023-04-19T09:38:06;5.20;;;3.37;;
2213;SDS011;1113;42.018;23.986;2023-04-19T09:40:33;4.67;;;3.00;;
2213;SDS011;1113;42.018;23.986;2023-04-19T09:43:00;3.73;;;2.03;;
2213;SDS011;1113;42.018;23.986;2023-04-19T09:45:26;3.27;;;1.90;;
2213;SDS011;1113;42.018;23.986;2023-04-19T09:48:00;3.90;;;2.40;;
2213;SDS011;1113;42.018;23.986;2023-04-19T09:50:29;3.30;;;2.10;;
2213;SDS011;1113;42.018;23.986;2023-04-19T09:52:56;4.10;;;3.40;;
2213;SDS011;1113;42.018;23.986;2023-04-19T09:55:24;6.93;;;3.57;;
2213;SDS011;1113;42.018;23.986;2023-04-19T09:57:51;9.07;;;3.50;;
2213;SDS011;1113;42.018;23.986;2023-04-19T10:00:18;7.57;;;3.30;;
2213;SDS011;1113;42.018;23.986;2023-04-19T10:02:45;5.90;;;2.87;;
2213;SDS011;1113;42.018;23.986;2023-04-19T10:05:18;7.17;;;3.63;;
2213;SDS011;1113;42.018;23.986;2023-04-19T10:07:46;4.80;;;2.93;;
2213;SDS011;1113;42.018;23.986;2023-04-19T10:10:14;5.13;;;4.00;;
2213;SDS011;1113;42.018;23.986;2023-04-19T10:12:42;8.87;;;4.80;;
2213;SDS011;1113;42.018;23.986;2023-04-19T10:15:11;8.27;;;4.93;;
2213;SDS011;1113;42.018;23.986;2023-04-19T10:17:38;6.13;;;4.10;;
2213;SDS011;1113;42.018;23.986;2023-04-19T10:20:06;2.17;;;1.57;;
2213;SDS011;1113;42.018;23.986;2023-04-19T10:22:34;3.30;;;2.23;;
2213;SDS011;1113;42.018;23.986;2023-04-19T10:25:12;3.07;;;1.73;;
2213;SDS011;1113;42.018;23.986;2023-04-19T10:27:39;3.30;;;2.50;;
2213;SDS011;1113;42.018;23.986;2023-04-19T10:30:16;2.57;;;1.50;;
2213;SDS011;1113;42.018;23.986;2023-04-19T10:32:44;2.50;;;1.57;;
2213;SDS011;1113;42.018;23.986;2023-04-19T10:35:16;4.27;;;2.57;;
2213;SDS011;1113;42.018;23.986;2023-04-19T10:38:00;3.47;;;2.40;;
2213;SDS011;1113;42.018;23.986;2023-04-19T10:43:15;2.37;;;1.60;;
2213;SDS011;1113;42.018;23.986;2023-04-19T10:45:43;3.13;;;2.30;;
2213;SDS011;1113;42.018;23.986;2023-04-19T10:50:57;2.87;;;2.33;;
2213;SDS011;1113;42.018;23.986;2023-04-19T10:53:46;5.60;;;3.57;;
2213;SDS011;1113;42.018;23.986;2023-04-19T10:56:13;4.20;;;2.80;;
2213;SDS011;1113;42.018;23.986;2023-04-19T11:01:32;3.27;;;2.10;;
2213;SDS011;1113;42.018;23.986;2023-04-19T11:03:58;13.70;;;6.83;;
2213;SDS011;1113;42.018;23.986;2023-04-19T11:06:25;3.40;;;2.90;;
2213;SDS011;1113;42.018;23.986;2023-04-19T11:08:52;6.83;;;3.43;;
2213;SDS011;1113;42.018;23.986;2023-04-19T11:11:19;7.10;;;4.77;;
2213;SDS011;1113;42.018;23.986;2023-04-19T11:13:46;13.30;;;8.10;;
2213;SDS011;1113;42.018;23.986;2023-04-19T11:16:12;8.37;;;6.50;;
2213;SDS011;1113;42.018;23.986;2023-04-19T11:18:40;10.20;;;7.13;;
2213;SDS011;1113;42.018;23.986;2023-04-19T11:21:11;10.13;;;8.63;;
2213;SDS011;1113;42.018;23.986;2023-04-19T11:23:37;9.27;;;6.40;;
2213;SDS011;1113;42.018;23.986;2023-04-19T11:26:04;13.00;;;8.60;;
2213;SDS011;1113;42.018;23.986;2023-04-19T11:28:31;8.23;;;5.67;;
2213;SDS011;1113;42.018;23.986;2023-04-19T11:30:58;9.13;;;7.30;;
2213;SDS011;1113;42.018;23.986;2023-04-19T11:33:25;8.70;;;6.03;;
2213;SDS011;1113;42.018;23.986;2023-04-19T11:35:54;7.60;;;5.47;;
2213;SDS011;1113;42.018;23.986;2023-04-19T11:38:20;7.30;;;6.10;;
2213;SDS011;1113;42.018;23.986;2023-04-19T11:40:47;7.53;;;5.17;;
2213;SDS011;1113;42.018;23.986;2023-04-19T11:43:23;6.70;;;4.07;;
2213;SDS011;1113;42.018;23.986;2023-04-19T11:45:49;3.77;;;2.60;;
2213;SDS011;1113;42.018;23.986;2023-04-19T11:48:16;5.20;;;3.27;;
2213;SDS011;1113;42.018;23.986;2023-04-19T11:50:43;11.20;;;4.33;;
2213;SDS011;1113;42.018;23.986;2023-04-19T11:53:12;6.03;;;4.43;;
2213;SDS011;1113;42.018;23.986;2023-04-19T11:55:40;9.40;;;5.07;;
2213;SDS011;1113;42.018;23.986;2023-04-19T11:58:07;4.23;;;3.00;;
2213;SDS011;1113;42.018;23.986;2023-04-19T12:00:34;5.33;;;3.00;;
2213;SDS011;1113;42.018;23.986;2023-04-19T12:03:04;4.00;;;2.80;;
2213;SDS011;1113;42.018;23.986;2023-04-19T12:05:30;6.10;;;4.07;;
2213;SDS011;1113;42.018;23.986;2023-04-19T12:07:58;8.20;;;4.87;;
2213;SDS011;1113;42.018;23.986;2023-04-19T12:10:26;7.47;;;6.10;;
2213;SDS011;1113;42.018;23.986;2023-04-19T12:12:53;6.60;;;5.00;;
2213;SDS011;1113;42.018;23.986;2023-04-19T12:15:19;5.67;;;4.07;;
2213;SDS011;1113;42.018;23.986;2023-04-19T12:17:55;7.37;;;5.30;;
2213;SDS011;1113;42.018;23.986;2023-04-19T12:20:29;3.67;;;3.00;;
2213;SDS011;1113;42.018;23.986;2023-04-19T12:22:55;4.30;;;2.80;;
2213;SDS011;1113;42.018;23.986;2023-04-19T12:25:24;4.97;;;3.57;;
2213;SDS011;1113;42.018;23.986;2023-04-19T12:27:54;5.40;;;3.37;;
2213;SDS011;1113;42.018;23.986;2023-04-19T12:30:21;5.70;;;3.90;;
2213;SDS011;1113;42.018;23.986;2023-04-19T12:32:47;11.53;;;7.37;;
2213;SDS011;1113;42.018;23.986;2023-04-19T12:35:15;4.63;;;3.20;;
2213;SDS011;1113;42.018;23.986;2023-04-19T12:37:42;5.57;;;4.00;;
2213;SDS011;1113;42.018;23.986;2023-04-19T12:40:09;6.10;;;4.83;;
2213;SDS011;1113;42.018;23.986;2023-04-19T12:42:35;8.10;;;6.00;;
2213;SDS011;1113;42.018;23.986;2023-04-19T12:45:04;5.33;;;4.07;;
2213;SDS011;1113;42.018;23.986;2023-04-19T12:47:30;6.80;;;4.37;;
2213;SDS011;1113;42.018;23.986;2023-04-19T12:49:57;3.43;;;2.00;;
2213;SDS011;1113;42.018;23.986;2023-04-19T12:52:24;3.77;;;2.57;;
2213;SDS011;1113;42.018;23.986;2023-04-19T12:54:50;7.27;;;4.90;;
2213;SDS011;1113;42.018;23.986;2023-04-19T12:57:17;3.77;;;2.30;;
2213;SDS011;1113;42.018;23.986;2023-04-19T12:59:43;3.90;;;2.13;;
2213;SDS011;1113;42.018;23.986;2023-04-19T13:02:11;2.87;;;1.60;;
2213;SDS011;1113;42.018;23.986;2023-04-19T13:04:37;10.40;;;6.50;;
2213;SDS011;1113;42.018;23.986;2023-04-19T13:07:04;3.40;;;2.20;;
2213;SDS011;1113;42.018;23.986;2023-04-19T13:09:30;5.83;;;2.50;;
2213;SDS011;1113;42.018;23.986;2023-04-19T13:11:57;10.70;;;6.60;;
2213;SDS011;1113;42.018;23.986;2023-04-19T13:14:24;6.87;;;4.03;;
2213;SDS011;1113;42.018;23.986;2023-04-19T13:16:51;7.93;;;4.77;;
2213;SDS011;1113;42.018;23.986;2023-04-19T13:19:19;5.90;;;4.43;;
2213;SDS011;1113;42.018;23.986;2023-04-19T13:21:46;9.77;;;6.53;;
2213;SDS011;1113;42.018;23.986;2023-04-19T13:24:12;8.37;;;5.90;;
2213;SDS011;1113;42.018;23.986;2023-04-19T13:26:39;9.50;;;6.40;;
2213;SDS011;1113;42.018;23.986;2023-04-19T13:29:05;4.63;;;3.53;;
2213;SDS011;1113;42.018;23.986;2023-04-19T13:31:32;7.43;;;5.17;;
2213;SDS011;1113;42.018;23.986;2023-04-19T13:33:59;6.30;;;4.80;;
2213;SDS011;1113;42.018;23.986;2023-04-19T13:36:27;6.13;;;4.43;;
2213;SDS011;1113;42.018;23.986;2023-04-19T13:38:54;5.33;;;3.00;;
2213;SDS011;1113;42.018;23.986;2023-04-19T13:41:20;6.23;;;4.67;;
2213;SDS011;1113;42.018;23.986;2023-04-19T13:43:47;6.93;;;5.60;;
2213;SDS011;1113;42.018;23.986;2023-04-19T13:46:13;5.97;;;3.70;;
2213;SDS011;1113;42.018;23.986;2023-04-19T13:48:43;5.83;;;4.27;;
2213;SDS011;1113;42.018;23.986;2023-04-19T13:51:09;4.90;;;3.50;;
2213;SDS011;1113;42.018;23.986;2023-04-19T13:53:37;4.10;;;3.13;;
2213;SDS011;1113;42.018;23.986;2023-04-19T13:56:05;4.70;;;3.37;;
2213;SDS011;1113;42.018;23.986;2023-04-19T13:58:33;9.43;;;6.00;;
2213;SDS011;1113;42.018;23.986;2023-04-19T14:01:00;7.07;;;5.20;;
2213;SDS011;1113;42.018;23.986;2023-04-19T14:03:28;6.50;;;4.30;;
2213;SDS011;1113;42.018;23.986;2023-04-19T14:05:54;7.60;;;5.10;;
2213;SDS011;1113;42.018;23.986;2023-04-19T14:08:21;4.63;;;3.53;;
2213;SDS011;1113;42.018;23.986;2023-04-19T14:10:49;2.97;;;2.20;;
2213;SDS011;1113;42.018;23.986;2023-04-19T14:13:15;3.70;;;2.47;;
2213;SDS011;1113;42.018;23.986;2023-04-19T14:15:42;3.30;;;2.40;;
2213;SDS011;1113;42.018;23.986;2023-04-19T14:18:09;3.30;;;2.57;;
2213;SDS011;1113;42.018;23.986;2023-04-19T14:20:35;3.77;;;2.40;;
2213;SDS011;1113;42.018;23.986;2023-04-19T14:23:05;2.77;;;2.10;;
2213;SDS011;1113;42.018;23.986;2023-04-19T14:25:31;4.20;;;2.80;;
2213;SDS011;1113;42.018;23.986;2023-04-19T14:27:59;5.57;;;4.10;;
2213;SDS011;1113;42.018;23.986;2023-04-19T14:30:26;5.67;;;3.83;;
2213;SDS011;1113;42.018;23.986;2023-04-19T14:32:52;7.80;;;6.20;;
2213;SDS011;1113;42.018;23.986;2023-04-19T14:35:19;9.03;;;6.03;;
2213;SDS011;1113;42.018;23.986;2023-04-19T14:37:45;8.53;;;6.57;;
2213;SDS011;1113;42.018;23.986;2023-04-19T14:40:12;10.43;;;6.63;;
2213;SDS011;1113;42.018;23.986;2023-04-19T14:42:38;6.23;;;4.27;;
2213;SDS011;1113;42.018;23.986;2023-04-19T14:45:07;7.90;;;5.17;;
2213;SDS011;1113;42.018;23.986;2023-04-19T14:47:34;4.73;;;4.03;;
2213;SDS011;1113;42.018;23.986;2023-04-19T14:50:00;10.53;;;6.90;;
2213;SDS011;1113;42.018;23.986;2023-04-19T14:52:28;9.47;;;7.20;;
2213;SDS011;1113;42.018;23.986;2023-04-19T14:54:55;7.33;;;5.93;;
2213;SDS011;1113;42.018;23.986;2023-04-19T14:57:23;7.53;;;5.77;;
2213;SDS011;1113;42.018;23.986;2023-04-19T14:59:52;9.40;;;7.03;;
2213;SDS011;1113;42.018;23.986;2023-04-19T15:02:23;5.90;;;5.30;;
2213;SDS011;1113;42.018;23.986;2023-04-19T15:04:49;6.90;;;5.40;;